sensor_id;sensor_type;location;lat;lon;timestamp;temperature;humidity
37052;DHT22;22964;52.272;13.356;2022-07-10T00:01:55;19.10;53.80
37052;DHT22;22964;52.272;13.356;2022-07-10T00:04:21;19.10;53.80
37052;DHT22;22964;52.272;13.356;2022-07-10T00:06:47;19.10;53.90
37052;DHT22;22964;52.272;13.356;2022-07-10T00:09:13;19.10;54.00
37052;DHT22;22964;52.272;13.356;2022-07-10T00:11:40;19.10;54.00
37052;DHT22;22964;52.272;13.356;2022-07-10T00:14:06;19.00;54.00
37052;DHT22;22964;52.272;13.356;2022-07-10T00:16:31;19.00;54.00
37052;DHT22;22964;52.272;13.356;2022-07-10T00:18:57;19.00;53.90
37052;DHT22;22964;52.272;13.356;2022-07-10T00:21:23;18.90;53.90
37052;DHT22;22964;52.272;13.356;2022-07-10T00:23:48;18.90;53.90
37052;DHT22;22964;52.272;13.356;2022-07-10T00:26:14;18.90;54.00
37052;DHT22;22964;52.272;13.356;2022-07-10T00:28:40;18.80;54.00
37052;DHT22;22964;52.272;13.356;2022-07-10T00:31:05;18.80;54.00
37052;DHT22;22964;52.272;13.356;2022-07-10T00:33:31;18.80;54.10
37052;DHT22;22964;52.272;13.356;2022-07-10T00:35:58;18.70;54.20
37052;DHT22;22964;52.272;13.356;2022-07-10T00:38:24;18.70;54.40
37052;DHT22;22964;52.272;13.356;2022-07-10T00:40:50;18.60;54.50
37052;DHT22;22964;52.272;13.356;2022-07-10T00:43:16;18.60;54.70
37052;DHT22;22964;52.272;13.356;2022-07-10T00:45:42;18.60;55.50
37052;DHT22;22964;52.272;13.356;2022-07-10T00:48:08;18.60;54.80
37052;DHT22;22964;52.272;13.356;2022-07-10T00:50:37;18.60;54.90
37052;DHT22;22964;52.272;13.356;2022-07-10T00:53:04;18.60;55.00
37052;DHT22;22964;52.272;13.356;2022-07-10T00:55:30;18.60;55.00
37052;DHT22;22964;52.272;13.356;2022-07-10T00:57:58;18.60;55.10
37052;DHT22;22964;52.272;13.356;2022-07-10T01:00:25;18.60;55.20
37052;DHT22;22964;52.272;13.356;2022-07-10T01:02:52;18.60;55.20
37052;DHT22;22964;52.272;13.356;2022-07-10T01:05:18;18.60;55.20
37052;DHT22;22964;52.272;13.356;2022-07-10T01:07:43;18.60;55.30
37052;DHT22;22964;52.272;13.356;2022-07-10T01:10:10;18.60;55.40
37052;DHT22;22964;52.272;13.356;2022-07-10T01:12:36;18.60;55.50
37052;DHT22;22964;52.272;13.356;2022-07-10T01:15:02;18.60;55.50
37052;DHT22;22964;52.272;13.356;2022-07-10T01:17:29;18.60;55.50
37052;DHT22;22964;52.272;13.356;2022-07-10T01:19:55;18.60;55.60
37052;DHT22;22964;52.272;13.356;2022-07-10T01:22:21;18.60;55.60
37052;DHT22;22964;52.272;13.356;2022-07-10T01:24:47;18.60;55.50
37052;DHT22;22964;52.272;13.356;2022-07-10T01:27:12;18.60;55.60
37052;DHT22;22964;52.272;13.356;2022-07-10T01:29:39;18.60;55.50
37052;DHT22;22964;52.272;13.356;2022-07-10T01:32:05;18.60;55.60
37052;DHT22;22964;52.272;13.356;2022-07-10T01:34:31;18.60;55.60
37052;DHT22;22964;52.272;13.356;2022-07-10T01:36:57;18.60;55.70
37052;DHT22;22964;52.272;13.356;2022-07-10T01:39:22;18.60;55.70
37052;DHT22;22964;52.272;13.356;2022-07-10T01:41:48;18.60;55.60
37052;DHT22;22964;52.272;13.356;2022-07-10T01:44:13;18.60;55.80
37052;DHT22;22964;52.272;13.356;2022-07-10T01:46:44;18.60;55.70
37052;DHT22;22964;52.272;13.356;2022-07-10T01:49:11;18.60;55.70
37052;DHT22;22964;52.272;13.356;2022-07-10T01:51:37;18.60;56.40
37052;DHT22;22964;52.272;13.356;2022-07-10T01:54:02;18.60;55.50
37052;DHT22;22964;52.272;13.356;2022-07-10T01:56:28;18.50;55.50
37052;DHT22;22964;52.272;13.356;2022-07-10T01:58:54;18.50;55.50
37052;DHT22;22964;52.272;13.356;2022-07-10T02:01:19;18.50;55.60
37052;DHT22;22964;52.272;13.356;2022-07-10T02:03:45;18.50;55.60
37052;DHT22;22964;52.272;13.356;2022-07-10T02:06:29;18.50;55.70
37052;DHT22;22964;52.272;13.356;2022-07-10T02:08:55;18.40;55.50
37052;DHT22;22964;52.272;13.356;2022-07-10T02:11:20;18.50;55.70
37052;DHT22;22964;52.272;13.356;2022-07-10T02:13:47;18.40;55.60
37052;DHT22;22964;52.272;13.356;2022-07-10T02:16:13;18.40;55.80
37052;DHT22;22964;52.272;13.356;2022-07-10T02:18:38;18.40;56.50
37052;DHT22;22964;52.272;13.356;2022-07-10T02:21:05;18.40;55.70
37052;DHT22;22964;52.272;13.356;2022-07-10T02:23:30;18.40;55.60
37052;DHT22;22964;52.272;13.356;2022-07-10T02:25:56;18.40;55.70
37052;DHT22;22964;52.272;13.356;2022-07-10T02:28:22;18.40;55.70
37052;DHT22;22964;52.272;13.356;2022-07-10T02:30:47;18.40;55.70
37052;DHT22;22964;52.272;13.356;2022-07-10T02:33:13;18.40;55.80
37052;DHT22;22964;52.272;13.356;2022-07-10T02:35:39;18.40;55.80
37052;DHT22;22964;52.272;13.356;2022-07-10T02:38:05;18.40;55.80
37052;DHT22;22964;52.272;13.356;2022-07-10T02:40:30;18.30;55.80
37052;DHT22;22964;52.272;13.356;2022-07-10T02:42:56;18.40;55.90
37052;DHT22;22964;52.272;13.356;2022-07-10T02:45:21;18.40;55.90
37052;DHT22;22964;52.272;13.356;2022-07-10T02:47:47;18.30;55.90
37052;DHT22;22964;52.272;13.356;2022-07-10T02:50:14;18.30;56.00
37052;DHT22;22964;52.272;13.356;2022-07-10T02:52:39;18.30;56.00
37052;DHT22;22964;52.272;13.356;2022-07-10T02:55:05;18.30;56.00
37052;DHT22;22964;52.272;13.356;2022-07-10T02:57:31;18.30;56.10
37052;DHT22;22964;52.272;13.356;2022-07-10T02:59:57;18.30;56.10
37052;DHT22;22964;52.272;13.356;2022-07-10T03:02:22;18.30;56.20
37052;DHT22;22964;52.272;13.356;2022-07-10T03:04:48;18.30;56.20
37052;DHT22;22964;52.272;13.356;2022-07-10T03:07:14;18.30;56.30
37052;DHT22;22964;52.272;13.356;2022-07-10T03:09:39;18.30;56.40
37052;DHT22;22964;52.272;13.356;2022-07-10T03:12:06;18.20;56.30
37052;DHT22;22964;52.272;13.356;2022-07-10T03:14:31;18.30;56.40
37052;DHT22;22964;52.272;13.356;2022-07-10T03:16:58;18.20;56.40
37052;DHT22;22964;52.272;13.356;2022-07-10T03:19:23;18.20;56.40
37052;DHT22;22964;52.272;13.356;2022-07-10T03:21:49;18.20;56.40
37052;DHT22;22964;52.272;13.356;2022-07-10T03:24:14;18.20;56.50
37052;DHT22;22964;52.272;13.356;2022-07-10T03:26:40;18.20;56.60
37052;DHT22;22964;52.272;13.356;2022-07-10T03:29:06;18.20;56.60
37052;DHT22;22964;52.272;13.356;2022-07-10T03:31:31;18.20;56.60
37052;DHT22;22964;52.272;13.356;2022-07-10T03:33:57;18.20;56.70
37052;DHT22;22964;52.272;13.356;2022-07-10T03:36:23;18.20;56.70
37052;DHT22;22964;52.272;13.356;2022-07-10T03:38:49;18.20;56.80
37052;DHT22;22964;52.272;13.356;2022-07-10T03:41:14;18.20;56.90
37052;DHT22;22964;52.272;13.356;2022-07-10T03:43:40;18.20;57.00
37052;DHT22;22964;52.272;13.356;2022-07-10T03:46:06;18.10;57.00
37052;DHT22;22964;52.272;13.356;2022-07-10T03:48:32;18.10;57.00
37052;DHT22;22964;52.272;13.356;2022-07-10T03:50:58;18.20;57.10
37052;DHT22;22964;52.272;13.356;2022-07-10T03:53:24;18.10;57.10
37052;DHT22;22964;52.272;13.356;2022-07-10T03:55:50;18.20;57.10
37052;DHT22;22964;52.272;13.356;2022-07-10T03:58:15;18.20;57.80
37052;DHT22;22964;52.272;13.356;2022-07-10T04:00:41;18.10;57.10
37052;DHT22;22964;52.272;13.356;2022-07-10T04:03:08;18.10;57.20
37052;DHT22;22964;52.272;13.356;2022-07-10T04:05:34;18.20;57.40
37052;DHT22;22964;52.272;13.356;2022-07-10T04:08:01;18.20;58.20
37052;DHT22;22964;52.272;13.356;2022-07-10T04:10:28;18.20;57.50
37052;DHT22;22964;52.272;13.356;2022-07-10T04:12:54;18.10;57.50
37052;DHT22;22964;52.272;13.356;2022-07-10T04:15:21;18.20;57.50
37052;DHT22;22964;52.272;13.356;2022-07-10T04:17:47;18.20;57.50
37052;DHT22;22964;52.272;13.356;2022-07-10T04:20:14;18.20;57.50
37052;DHT22;22964;52.272;13.356;2022-07-10T04:22:40;18.20;57.60
37052;DHT22;22964;52.272;13.356;2022-07-10T04:25:06;18.20;57.50
37052;DHT22;22964;52.272;13.356;2022-07-10T04:27:32;18.20;57.50
37052;DHT22;22964;52.272;13.356;2022-07-10T04:29:58;18.20;57.40
37052;DHT22;22964;52.272;13.356;2022-07-10T04:32:24;18.20;58.20
37052;DHT22;22964;52.272;13.356;2022-07-10T04:34:49;18.20;57.50
37052;DHT22;22964;52.272;13.356;2022-07-10T04:37:15;18.20;57.60
37052;DHT22;22964;52.272;13.356;2022-07-10T04:39:41;18.20;57.70
37052;DHT22;22964;52.272;13.356;2022-07-10T04:42:07;18.20;57.80
37052;DHT22;22964;52.272;13.356;2022-07-10T04:44:34;18.20;57.80
37052;DHT22;22964;52.272;13.356;2022-07-10T04:47:00;18.20;58.10
37052;DHT22;22964;52.272;13.356;2022-07-10T04:49:26;18.20;58.00
37052;DHT22;22964;52.272;13.356;2022-07-10T04:51:51;18.20;58.10
37052;DHT22;22964;52.272;13.356;2022-07-10T04:54:17;18.30;58.30
37052;DHT22;22964;52.272;13.356;2022-07-10T04:56:43;18.30;58.30
37052;DHT22;22964;52.272;13.356;2022-07-10T04:59:09;18.30;58.30
37052;DHT22;22964;52.272;13.356;2022-07-10T05:01:36;18.30;58.40
37052;DHT22;22964;52.272;13.356;2022-07-10T05:04:03;18.30;58.50
37052;DHT22;22964;52.272;13.356;2022-07-10T05:06:29;18.40;58.40
37052;DHT22;22964;52.272;13.356;2022-07-10T05:08:55;18.40;58.40
37052;DHT22;22964;52.272;13.356;2022-07-10T05:11:21;18.40;58.30
37052;DHT22;22964;52.272;13.356;2022-07-10T05:13:47;18.40;58.40
37052;DHT22;22964;52.272;13.356;2022-07-10T05:16:14;18.40;59.00
37052;DHT22;22964;52.272;13.356;2022-07-10T05:18:40;18.50;58.30
37052;DHT22;22964;52.272;13.356;2022-07-10T05:21:07;18.50;58.40
37052;DHT22;22964;52.272;13.356;2022-07-10T05:23:33;18.50;58.50
37052;DHT22;22964;52.272;13.356;2022-07-10T05:25:58;18.60;58.50
37052;DHT22;22964;52.272;13.356;2022-07-10T05:28:24;18.60;58.30
37052;DHT22;22964;52.272;13.356;2022-07-10T05:30:50;18.60;58.30
37052;DHT22;22964;52.272;13.356;2022-07-10T05:33:17;18.60;58.30
37052;DHT22;22964;52.272;13.356;2022-07-10T05:35:43;18.70;58.30
37052;DHT22;22964;52.272;13.356;2022-07-10T05:38:08;18.70;58.30
37052;DHT22;22964;52.272;13.356;2022-07-10T05:40:34;18.70;58.30
37052;DHT22;22964;52.272;13.356;2022-07-10T05:43:00;18.80;58.30
37052;DHT22;22964;52.272;13.356;2022-07-10T05:45:26;18.80;58.30
37052;DHT22;22964;52.272;13.356;2022-07-10T05:47:52;18.80;58.30
37052;DHT22;22964;52.272;13.356;2022-07-10T05:50:17;18.90;58.20
37052;DHT22;22964;52.272;13.356;2022-07-10T05:52:43;18.90;58.10
37052;DHT22;22964;52.272;13.356;2022-07-10T05:55:09;18.90;58.20
37052;DHT22;22964;52.272;13.356;2022-07-10T05:57:35;18.90;58.10
37052;DHT22;22964;52.272;13.356;2022-07-10T06:00:06;19.00;58.10
37052;DHT22;22964;52.272;13.356;2022-07-10T06:02:41;19.00;58.00
37052;DHT22;22964;52.272;13.356;2022-07-10T06:05:07;19.10;57.90
37052;DHT22;22964;52.272;13.356;2022-07-10T06:07:33;19.10;57.60
37052;DHT22;22964;52.272;13.356;2022-07-10T06:09:59;19.10;57.60
37052;DHT22;22964;52.272;13.356;2022-07-10T06:12:25;19.10;57.50
37052;DHT22;22964;52.272;13.356;2022-07-10T06:14:51;19.20;57.60
37052;DHT22;22964;52.272;13.356;2022-07-10T06:17:17;19.20;57.60
37052;DHT22;22964;52.272;13.356;2022-07-10T06:19:43;19.20;57.60
37052;DHT22;22964;52.272;13.356;2022-07-10T06:22:08;19.30;57.70
37052;DHT22;22964;52.272;13.356;2022-07-10T06:24:53;19.30;57.50
37052;DHT22;22964;52.272;13.356;2022-07-10T06:27:18;19.40;57.40
37052;DHT22;22964;52.272;13.356;2022-07-10T06:29:44;19.40;57.30
37052;DHT22;22964;52.272;13.356;2022-07-10T06:32:10;19.40;57.30
37052;DHT22;22964;52.272;13.356;2022-07-10T06:34:35;19.50;57.00
37052;DHT22;22964;52.272;13.356;2022-07-10T06:37:01;19.50;56.90
37052;DHT22;22964;52.272;13.356;2022-07-10T06:39:31;19.50;56.70
37052;DHT22;22964;52.272;13.356;2022-07-10T06:41:57;19.60;56.70
37052;DHT22;22964;52.272;13.356;2022-07-10T06:44:23;19.60;56.70
37052;DHT22;22964;52.272;13.356;2022-07-10T06:46:48;19.60;56.60
37052;DHT22;22964;52.272;13.356;2022-07-10T06:49:34;19.60;56.60
37052;DHT22;22964;52.272;13.356;2022-07-10T06:52:00;19.60;56.50
37052;DHT22;22964;52.272;13.356;2022-07-10T06:54:26;19.70;56.40
37052;DHT22;22964;52.272;13.356;2022-07-10T06:56:52;19.80;56.40
37052;DHT22;22964;52.272;13.356;2022-07-10T06:59:18;19.80;56.20
37052;DHT22;22964;52.272;13.356;2022-07-10T07:01:44;19.80;56.20
37052;DHT22;22964;52.272;13.356;2022-07-10T07:04:09;19.80;56.20
37052;DHT22;22964;52.272;13.356;2022-07-10T07:06:35;19.90;56.30
37052;DHT22;22964;52.272;13.356;2022-07-10T07:09:01;20.00;56.10
37052;DHT22;22964;52.272;13.356;2022-07-10T07:11:26;20.10;55.90
37052;DHT22;22964;52.272;13.356;2022-07-10T07:13:52;20.10;55.90
37052;DHT22;22964;52.272;13.356;2022-07-10T07:16:18;20.10;55.90
37052;DHT22;22964;52.272;13.356;2022-07-10T07:18:45;20.20;55.50
37052;DHT22;22964;52.272;13.356;2022-07-10T07:21:17;20.30;55.30
37052;DHT22;22964;52.272;13.356;2022-07-10T07:24:02;20.30;55.30
37052;DHT22;22964;52.272;13.356;2022-07-10T07:26:29;20.40;55.10
37052;DHT22;22964;52.272;13.356;2022-07-10T07:28:55;20.40;54.60
37052;DHT22;22964;52.272;13.356;2022-07-10T07:31:20;20.50;54.40
37052;DHT22;22964;52.272;13.356;2022-07-10T07:33:46;20.50;55.00
37052;DHT22;22964;52.272;13.356;2022-07-10T07:36:12;20.60;54.30
37052;DHT22;22964;52.272;13.356;2022-07-10T07:38:38;20.60;53.90
37052;DHT22;22964;52.272;13.356;2022-07-10T07:41:03;20.60;53.80
37052;DHT22;22964;52.272;13.356;2022-07-10T07:43:29;20.70;53.60
37052;DHT22;22964;52.272;13.356;2022-07-10T07:45:55;20.70;53.40
37052;DHT22;22964;52.272;13.356;2022-07-10T07:48:22;20.80;53.60
37052;DHT22;22964;52.272;13.356;2022-07-10T07:50:48;20.90;53.40
37052;DHT22;22964;52.272;13.356;2022-07-10T07:53:13;21.00;53.50
37052;DHT22;22964;52.272;13.356;2022-07-10T07:55:39;21.10;54.10
37052;DHT22;22964;52.272;13.356;2022-07-10T07:58:05;21.30;53.10
37052;DHT22;22964;52.272;13.356;2022-07-10T08:00:31;21.40;52.80
37052;DHT22;22964;52.272;13.356;2022-07-10T08:02:57;21.50;52.60
37052;DHT22;22964;52.272;13.356;2022-07-10T08:05:23;21.60;52.40
37052;DHT22;22964;52.272;13.356;2022-07-10T08:07:52;21.60;52.00
37052;DHT22;22964;52.272;13.356;2022-07-10T08:10:21;21.50;51.60
37052;DHT22;22964;52.272;13.356;2022-07-10T08:12:48;21.50;51.50
37052;DHT22;22964;52.272;13.356;2022-07-10T08:15:16;21.50;51.50
37052;DHT22;22964;52.272;13.356;2022-07-10T08:17:42;21.40;51.50
37052;DHT22;22964;52.272;13.356;2022-07-10T08:20:11;21.30;51.30
37052;DHT22;22964;52.272;13.356;2022-07-10T08:22:37;21.20;51.20
37052;DHT22;22964;52.272;13.356;2022-07-10T08:25:04;21.10;51.30
37052;DHT22;22964;52.272;13.356;2022-07-10T08:27:29;21.00;51.60
37052;DHT22;22964;52.272;13.356;2022-07-10T08:29:55;21.00;51.80
37052;DHT22;22964;52.272;13.356;2022-07-10T08:32:21;21.00;51.90
37052;DHT22;22964;52.272;13.356;2022-07-10T08:34:46;21.10;51.80
37052;DHT22;22964;52.272;13.356;2022-07-10T08:37:14;21.10;51.30
37052;DHT22;22964;52.272;13.356;2022-07-10T08:39:39;21.10;51.70
37052;DHT22;22964;52.272;13.356;2022-07-10T08:42:07;21.20;51.60
37052;DHT22;22964;52.272;13.356;2022-07-10T08:44:36;21.20;51.50
37052;DHT22;22964;52.272;13.356;2022-07-10T08:47:03;21.30;51.60
37052;DHT22;22964;52.272;13.356;2022-07-10T08:49:30;21.30;51.60
37052;DHT22;22964;52.272;13.356;2022-07-10T08:52:13;21.30;51.50
37052;DHT22;22964;52.272;13.356;2022-07-10T08:54:42;21.30;51.00
37052;DHT22;22964;52.272;13.356;2022-07-10T08:57:09;21.30;50.90
37052;DHT22;22964;52.272;13.356;2022-07-10T08:59:35;21.30;50.20
37052;DHT22;22964;52.272;13.356;2022-07-10T09:02:01;21.30;50.30
37052;DHT22;22964;52.272;13.356;2022-07-10T09:04:27;21.30;50.40
37052;DHT22;22964;52.272;13.356;2022-07-10T09:06:54;21.30;50.30
37052;DHT22;22964;52.272;13.356;2022-07-10T09:09:20;21.30;50.60
37052;DHT22;22964;52.272;13.356;2022-07-10T09:11:46;21.40;50.70
37052;DHT22;22964;52.272;13.356;2022-07-10T09:14:16;21.40;50.80
37052;DHT22;22964;52.272;13.356;2022-07-10T09:16:44;21.50;50.50
37052;DHT22;22964;52.272;13.356;2022-07-10T09:21:44;21.70;50.40
37052;DHT22;22964;52.272;13.356;2022-07-10T09:24:10;21.70;50.10
37052;DHT22;22964;52.272;13.356;2022-07-10T09:26:37;21.80;49.60
37052;DHT22;22964;52.272;13.356;2022-07-10T09:29:21;21.80;49.00
37052;DHT22;22964;52.272;13.356;2022-07-10T09:31:52;21.80;48.60
37052;DHT22;22964;52.272;13.356;2022-07-10T09:37:26;21.80;49.80
37052;DHT22;22964;52.272;13.356;2022-07-10T09:39:59;21.90;48.90
37052;DHT22;22964;52.272;13.356;2022-07-10T09:42:39;21.90;49.40
37052;DHT22;22964;52.272;13.356;2022-07-10T09:47:53;22.10;49.40
37052;DHT22;22964;52.272;13.356;2022-07-10T09:50:25;22.20;49.20
37052;DHT22;22964;52.272;13.356;2022-07-10T09:52:58;22.30;48.50
37052;DHT22;22964;52.272;13.356;2022-07-10T09:55:26;22.30;48.90
37052;DHT22;22964;52.272;13.356;2022-07-10T10:00:33;22.50;48.60
37052;DHT22;22964;52.272;13.356;2022-07-10T10:03:00;22.50;48.60
37052;DHT22;22964;52.272;13.356;2022-07-10T10:05:53;22.60;48.30
37052;DHT22;22964;52.272;13.356;2022-07-10T10:08:24;22.60;48.10
37052;DHT22;22964;52.272;13.356;2022-07-10T10:10:50;22.60;48.20
37052;DHT22;22964;52.272;13.356;2022-07-10T10:13:21;22.60;48.40
37052;DHT22;22964;52.272;13.356;2022-07-10T10:15:49;22.60;48.10
37052;DHT22;22964;52.272;13.356;2022-07-10T10:18:19;22.50;48.20
37052;DHT22;22964;52.272;13.356;2022-07-10T10:20:46;22.50;48.10
37052;DHT22;22964;52.272;13.356;2022-07-10T10:23:15;22.40;48.20
37052;DHT22;22964;52.272;13.356;2022-07-10T10:25:46;22.40;48.30
37052;DHT22;22964;52.272;13.356;2022-07-10T10:28:13;22.40;48.40
37052;DHT22;22964;52.272;13.356;2022-07-10T10:30:41;22.30;49.20
37052;DHT22;22964;52.272;13.356;2022-07-10T10:36:00;22.40;48.10
37052;DHT22;22964;52.272;13.356;2022-07-10T10:41:52;22.60;47.50
37052;DHT22;22964;52.272;13.356;2022-07-10T10:49:23;22.90;46.50
37052;DHT22;22964;52.272;13.356;2022-07-10T10:54:34;23.00;46.30
37052;DHT22;22964;52.272;13.356;2022-07-10T10:57:17;23.10;46.90
37052;DHT22;22964;52.272;13.356;2022-07-10T10:59:51;23.20;46.90
37052;DHT22;22964;52.272;13.356;2022-07-10T11:02:28;23.30;46.40
37052;DHT22;22964;52.272;13.356;2022-07-10T11:08:03;23.60;46.70
37052;DHT22;22964;52.272;13.356;2022-07-10T11:15:37;24.30;46.80
37052;DHT22;22964;52.272;13.356;2022-07-10T11:18:07;24.50;46.70
37052;DHT22;22964;52.272;13.356;2022-07-10T11:20:38;24.80;46.10
37052;DHT22;22964;52.272;13.356;2022-07-10T11:26:08;25.10;44.30
37052;DHT22;22964;52.272;13.356;2022-07-10T11:31:08;25.20;43.70
37052;DHT22;22964;52.272;13.356;2022-07-10T11:33:41;25.10;43.80
37052;DHT22;22964;52.272;13.356;2022-07-10T11:36:19;25.00;43.00
37052;DHT22;22964;52.272;13.356;2022-07-10T11:38:47;24.90;42.70
37052;DHT22;22964;52.272;13.356;2022-07-10T11:41:18;24.80;43.30
37052;DHT22;22964;52.272;13.356;2022-07-10T11:43:49;24.70;43.00
37052;DHT22;22964;52.272;13.356;2022-07-10T11:46:16;24.60;43.30
37052;DHT22;22964;52.272;13.356;2022-07-10T11:48:41;24.60;44.10
37052;DHT22;22964;52.272;13.356;2022-07-10T11:51:25;24.60;43.90
37052;DHT22;22964;52.272;13.356;2022-07-10T11:54:05;24.60;43.00
37052;DHT22;22964;52.272;13.356;2022-07-10T11:56:34;24.70;42.90
37052;DHT22;22964;52.272;13.356;2022-07-10T11:59:08;24.80;43.50
37052;DHT22;22964;52.272;13.356;2022-07-10T12:04:12;24.90;43.00
37052;DHT22;22964;52.272;13.356;2022-07-10T12:06:40;24.80;43.50
37052;DHT22;22964;52.272;13.356;2022-07-10T12:09:08;24.90;43.10
37052;DHT22;22964;52.272;13.356;2022-07-10T12:11:34;24.90;43.10
37052;DHT22;22964;52.272;13.356;2022-07-10T12:16:39;24.80;42.80
37052;DHT22;22964;52.272;13.356;2022-07-10T12:19:06;24.80;42.90
37052;DHT22;22964;52.272;13.356;2022-07-10T12:21:32;24.80;42.10
37052;DHT22;22964;52.272;13.356;2022-07-10T12:23:59;24.80;42.10
37052;DHT22;22964;52.272;13.356;2022-07-10T12:26:34;24.80;42.50
37052;DHT22;22964;52.272;13.356;2022-07-10T12:29:00;24.80;41.90
37052;DHT22;22964;52.272;13.356;2022-07-10T12:31:30;24.80;42.60
37052;DHT22;22964;52.272;13.356;2022-07-10T12:34:06;24.80;43.10
37052;DHT22;22964;52.272;13.356;2022-07-10T12:36:49;24.80;42.00
37052;DHT22;22964;52.272;13.356;2022-07-10T12:39:18;24.90;41.70
37052;DHT22;22964;52.272;13.356;2022-07-10T12:42:04;24.90;41.50
37052;DHT22;22964;52.272;13.356;2022-07-10T12:44:40;24.90;41.10
37052;DHT22;22964;52.272;13.356;2022-07-10T12:47:08;24.90;41.40
37052;DHT22;22964;52.272;13.356;2022-07-10T12:52:30;25.00;41.10
37052;DHT22;22964;52.272;13.356;2022-07-10T12:57:51;25.20;40.90
37052;DHT22;22964;52.272;13.356;2022-07-10T13:00:19;25.20;41.20
37052;DHT22;22964;52.272;13.356;2022-07-10T13:02:47;25.30;41.50
37052;DHT22;22964;52.272;13.356;2022-07-10T13:05:33;25.30;41.30
37052;DHT22;22964;52.272;13.356;2022-07-10T13:08:13;25.30;39.30
37052;DHT22;22964;52.272;13.356;2022-07-10T13:10:49;25.40;40.40
37052;DHT22;22964;52.272;13.356;2022-07-10T13:13:15;25.50;40.50
37052;DHT22;22964;52.272;13.356;2022-07-10T13:15:42;25.50;40.50
37052;DHT22;22964;52.272;13.356;2022-07-10T13:18:26;25.60;40.40
37052;DHT22;22964;52.272;13.356;2022-07-10T13:20:53;25.50;40.10
37052;DHT22;22964;52.272;13.356;2022-07-10T13:23:19;25.50;40.00
37052;DHT22;22964;52.272;13.356;2022-07-10T13:25:48;25.40;39.90
37052;DHT22;22964;52.272;13.356;2022-07-10T13:28:14;25.40;40.00
37052;DHT22;22964;52.272;13.356;2022-07-10T13:30:42;25.30;40.00
37052;DHT22;22964;52.272;13.356;2022-07-10T13:33:08;25.30;40.20
37052;DHT22;22964;52.272;13.356;2022-07-10T13:35:34;25.30;40.10
37052;DHT22;22964;52.272;13.356;2022-07-10T13:38:01;25.30;40.10
37052;DHT22;22964;52.272;13.356;2022-07-10T13:40:29;25.30;40.00
37052;DHT22;22964;52.272;13.356;2022-07-10T13:42:56;25.30;40.10
37052;DHT22;22964;52.272;13.356;2022-07-10T13:45:22;25.30;40.10
37052;DHT22;22964;52.272;13.356;2022-07-10T13:47:48;25.30;40.30
37052;DHT22;22964;52.272;13.356;2022-07-10T13:50:14;25.40;40.30
37052;DHT22;22964;52.272;13.356;2022-07-10T13:52:40;25.50;39.90
37052;DHT22;22964;52.272;13.356;2022-07-10T13:55:06;25.60;40.00
37052;DHT22;22964;52.272;13.356;2022-07-10T13:57:32;25.70;39.60
37052;DHT22;22964;52.272;13.356;2022-07-10T13:59:58;25.80;39.60
37052;DHT22;22964;52.272;13.356;2022-07-10T14:02:24;25.80;39.70
37052;DHT22;22964;52.272;13.356;2022-07-10T14:04:49;25.80;39.60
37052;DHT22;22964;52.272;13.356;2022-07-10T14:07:15;25.90;39.60
37052;DHT22;22964;52.272;13.356;2022-07-10T14:09:41;25.90;39.10
37052;DHT22;22964;52.272;13.356;2022-07-10T14:12:07;26.00;38.90
37052;DHT22;22964;52.272;13.356;2022-07-10T14:14:32;26.00;39.40
37052;DHT22;22964;52.272;13.356;2022-07-10T14:16:58;26.10;39.20
37052;DHT22;22964;52.272;13.356;2022-07-10T14:19:24;26.30;38.90
37052;DHT22;22964;52.272;13.356;2022-07-10T14:21:49;26.40;38.70
37052;DHT22;22964;52.272;13.356;2022-07-10T14:24:15;26.60;38.70
37052;DHT22;22964;52.272;13.356;2022-07-10T14:26:41;26.80;38.50
37052;DHT22;22964;52.272;13.356;2022-07-10T14:29:06;26.90;38.40
37052;DHT22;22964;52.272;13.356;2022-07-10T14:34:04;27.20;36.90
37052;DHT22;22964;52.272;13.356;2022-07-10T14:36:31;27.30;37.30
37052;DHT22;22964;52.272;13.356;2022-07-10T14:38:57;27.40;37.40
37052;DHT22;22964;52.272;13.356;2022-07-10T14:41:24;27.50;37.00
37052;DHT22;22964;52.272;13.356;2022-07-10T14:43:50;27.60;37.00
37052;DHT22;22964;52.272;13.356;2022-07-10T14:46:16;27.60;36.80
37052;DHT22;22964;52.272;13.356;2022-07-10T14:48:42;27.70;36.40
37052;DHT22;22964;52.272;13.356;2022-07-10T14:51:07;27.80;36.00
37052;DHT22;22964;52.272;13.356;2022-07-10T14:53:34;27.80;36.60
37052;DHT22;22964;52.272;13.356;2022-07-10T14:56:04;27.80;35.70
37052;DHT22;22964;52.272;13.356;2022-07-10T14:58:31;27.90;35.30
37052;DHT22;22964;52.272;13.356;2022-07-10T15:00:57;27.90;35.40
37052;DHT22;22964;52.272;13.356;2022-07-10T15:03:23;27.90;35.00
37052;DHT22;22964;52.272;13.356;2022-07-10T15:05:49;27.80;35.30
37052;DHT22;22964;52.272;13.356;2022-07-10T15:08:22;27.80;35.40
37052;DHT22;22964;52.272;13.356;2022-07-10T15:10:48;27.80;35.00
37052;DHT22;22964;52.272;13.356;2022-07-10T15:13:14;27.80;35.10
37052;DHT22;22964;52.272;13.356;2022-07-10T15:15:40;27.80;35.20
37052;DHT22;22964;52.272;13.356;2022-07-10T15:18:06;27.80;35.40
37052;DHT22;22964;52.272;13.356;2022-07-10T15:20:32;27.90;35.20
37052;DHT22;22964;52.272;13.356;2022-07-10T15:22:58;27.90;35.20
37052;DHT22;22964;52.272;13.356;2022-07-10T15:25:24;27.90;34.80
37052;DHT22;22964;52.272;13.356;2022-07-10T15:27:52;27.90;34.70
37052;DHT22;22964;52.272;13.356;2022-07-10T15:30:19;27.70;34.50
37052;DHT22;22964;52.272;13.356;2022-07-10T15:32:44;27.70;34.40
37052;DHT22;22964;52.272;13.356;2022-07-10T15:35:12;27.60;34.70
37052;DHT22;22964;52.272;13.356;2022-07-10T15:37:38;27.60;35.10
37052;DHT22;22964;52.272;13.356;2022-07-10T15:40:04;27.60;35.30
37052;DHT22;22964;52.272;13.356;2022-07-10T15:42:30;27.60;35.30
37052;DHT22;22964;52.272;13.356;2022-07-10T15:44:56;27.80;35.30
37052;DHT22;22964;52.272;13.356;2022-07-10T15:47:22;27.90;35.60
37052;DHT22;22964;52.272;13.356;2022-07-10T15:49:48;27.90;35.00
37052;DHT22;22964;52.272;13.356;2022-07-10T15:52:14;28.00;34.80
37052;DHT22;22964;52.272;13.356;2022-07-10T15:54:39;28.10;34.70
37052;DHT22;22964;52.272;13.356;2022-07-10T15:57:07;28.10;34.70
37052;DHT22;22964;52.272;13.356;2022-07-10T15:59:33;28.20;34.70
37052;DHT22;22964;52.272;13.356;2022-07-10T16:02:00;28.20;34.50
37052;DHT22;22964;52.272;13.356;2022-07-10T16:04:26;28.30;34.40
37052;DHT22;22964;52.272;13.356;2022-07-10T16:06:53;28.30;34.40
37052;DHT22;22964;52.272;13.356;2022-07-10T16:09:19;28.40;34.20